sensor_id;sensor_type;location;lat;lon;timestamp;P1;durP1;ratioP1;P2;durP2;ratioP2
32032;SDS011;31720;52.638;9.216;2024-01-10T00:02:08;9.02;;;3.53;;
32032;SDS011;31720;52.638;9.216;2024-01-10T00:05:10;3.35;;;2.33;;
32032;SDS011;31720;52.638;9.216;2024-01-10T00:08:11;4.40;;;2.83;;
32032;SDS011;31720;52.638;9.216;2024-01-10T00:11:12;6.95;;;2.65;;
32032;SDS011;31720;52.638;9.216;2024-01-10T00:14:14;9.93;;;2.45;;
32032;SDS011;31720;52.638;9.216;2024-01-10T00:17:17;5.72;;;2.42;;
32032;SDS011;31720;52.638;9.216;2024-01-10T00:20:19;8.15;;;2.30;;
32032;SDS011;31720;52.638;9.216;2024-01-10T00:23:20;9.70;;;2.20;;
32032;SDS011;31720;52.638;9.216;2024-01-10T00:26:21;9.65;;;2.72;;
32032;SDS011;31720;52.638;9.216;2024-01-10T00:29:23;7.28;;;3.20;;
32032;SDS011;31720;52.638;9.216;2024-01-10T00:32:25;5.60;;;2.50;;
32032;SDS011;31720;52.638;9.216;2024-01-10T00:35:27;10.70;;;3.10;;
32032;SDS011;31720;52.638;9.216;2024-01-10T00:38:28;5.47;;;2.10;;
32032;SDS011;31720;52.638;9.216;2024-01-10T00:41:29;4.97;;;3.58;;
32032;SDS011;31720;52.638;9.216;2024-01-10T00:44:31;7.88;;;2.53;;
32032;SDS011;31720;52.638;9.216;2024-01-10T00:47:33;6.25;;;2.42;;
32032;SDS011;31720;52.638;9.216;2024-01-10T00:50:35;5.05;;;2.42;;
32032;SDS011;31720;52.638;9.216;2024-01-10T00:53:36;6.65;;;3.15;;
32032;SDS011;31720;52.638;9.216;2024-01-10T00:56:38;6.05;;;2.70;;
32032;SDS011;31720;52.638;9.216;2024-01-10T00:59:40;8.45;;;3.25;;
32032;SDS011;31720;52.638;9.216;2024-01-10T01:02:42;8.05;;;2.88;;
32032;SDS011;31720;52.638;9.216;2024-01-10T01:05:44;4.82;;;3.10;;
32032;SDS011;31720;52.638;9.216;2024-01-10T01:08:45;5.28;;;2.92;;
32032;SDS011;31720;52.638;9.216;2024-01-10T01:11:46;6.57;;;2.85;;
32032;SDS011;31720;52.638;9.216;2024-01-10T01:14:48;5.97;;;2.65;;
32032;SDS011;31720;52.638;9.216;2024-01-10T01:17:50;5.68;;;3.10;;
32032;SDS011;31720;52.638;9.216;2024-01-10T01:20:52;7.25;;;2.72;;
32032;SDS011;31720;52.638;9.216;2024-01-10T01:23:53;6.28;;;2.65;;
32032;SDS011;31720;52.638;9.216;2024-01-10T01:26:55;3.72;;;2.20;;
32032;SDS011;31720;52.638;9.216;2024-01-10T01:29:56;4.05;;;2.25;;
32032;SDS011;31720;52.638;9.216;2024-01-10T01:32:59;7.82;;;2.42;;
32032;SDS011;31720;52.638;9.216;2024-01-10T01:36:02;9.38;;;2.78;;
32032;SDS011;31720;52.638;9.216;2024-01-10T01:39:04;6.10;;;2.88;;
32032;SDS011;31720;52.638;9.216;2024-01-10T01:42:05;3.63;;;2.53;;
32032;SDS011;31720;52.638;9.216;2024-01-10T01:45:07;6.95;;;2.47;;
32032;SDS011;31720;52.638;9.216;2024-01-10T01:48:10;6.88;;;3.50;;
32032;SDS011;31720;52.638;9.216;2024-01-10T01:51:12;3.70;;;2.47;;
32032;SDS011;31720;52.638;9.216;2024-01-10T01:54:15;5.72;;;2.85;;
32032;SDS011;31720;52.638;9.216;2024-01-10T01:57:16;4.10;;;2.28;;
32032;SDS011;31720;52.638;9.216;2024-01-10T02:00:18;7.35;;;2.65;;
32032;SDS011;31720;52.638;9.216;2024-01-10T02:03:21;10.68;;;2.63;;
32032;SDS011;31720;52.638;9.216;2024-01-10T02:06:22;6.45;;;2.88;;
32032;SDS011;31720;52.638;9.216;2024-01-10T02:09:24;9.57;;;3.20;;
32032;SDS011;31720;52.638;9.216;2024-01-10T02:12:25;7.50;;;3.33;;
32032;SDS011;31720;52.638;9.216;2024-01-10T02:15:26;4.40;;;2.90;;
32032;SDS011;31720;52.638;9.216;2024-01-10T02:18:29;6.30;;;3.17;;
32032;SDS011;31720;52.638;9.216;2024-01-10T02:21:31;4.07;;;2.25;;
32032;SDS011;31720;52.638;9.216;2024-01-10T02:24:32;8.35;;;2.75;;
32032;SDS011;31720;52.638;9.216;2024-01-10T02:27:35;4.65;;;2.40;;
32032;SDS011;31720;52.638;9.216;2024-01-10T02:30:37;6.68;;;2.75;;
32032;SDS011;31720;52.638;9.216;2024-01-10T02:33:38;7.03;;;2.90;;
32032;SDS011;31720;52.638;9.216;2024-01-10T02:36:40;3.80;;;3.35;;
32032;SDS011;31720;52.638;9.216;2024-01-10T02:39:41;6.07;;;2.92;;
32032;SDS011;31720;52.638;9.216;2024-01-10T02:42:44;3.97;;;2.25;;
32032;SDS011;31720;52.638;9.216;2024-01-10T02:45:45;5.20;;;2.83;;
32032;SDS011;31720;52.638;9.216;2024-01-10T02:48:46;7.38;;;2.70;;
32032;SDS011;31720;52.638;9.216;2024-01-10T02:51:48;10.60;;;4.25;;
32032;SDS011;31720;52.638;9.216;2024-01-10T02:54:49;7.93;;;2.90;;
32032;SDS011;31720;52.638;9.216;2024-01-10T02:57:52;5.03;;;2.55;;
32032;SDS011;31720;52.638;9.216;2024-01-10T03:00:53;6.45;;;2.88;;
32032;SDS011;31720;52.638;9.216;2024-01-10T03:03:54;6.75;;;2.53;;
32032;SDS011;31720;52.638;9.216;2024-01-10T03:06:56;14.27;;;4.20;;
32032;SDS011;31720;52.638;9.216;2024-01-10T03:09:57;9.23;;;3.08;;
32032;SDS011;31720;52.638;9.216;2024-01-10T03:13:00;16.45;;;2.90;;
32032;SDS011;31720;52.638;9.216;2024-01-10T03:16:01;7.40;;;2.75;;
32032;SDS011;31720;52.638;9.216;2024-01-10T03:19:03;10.73;;;3.65;;
32032;SDS011;31720;52.638;9.216;2024-01-10T03:22:04;5.20;;;3.78;;
32032;SDS011;31720;52.638;9.216;2024-01-10T03:25:06;10.40;;;3.53;;
32032;SDS011;31720;52.638;9.216;2024-01-10T03:28:09;16.48;;;3.00;;
32032;SDS011;31720;52.638;9.216;2024-01-10T03:31:10;7.50;;;3.03;;
32032;SDS011;31720;52.638;9.216;2024-01-10T03:34:12;6.13;;;3.03;;
32032;SDS011;31720;52.638;9.216;2024-01-10T03:37:14;6.78;;;3.33;;
32032;SDS011;31720;52.638;9.216;2024-01-10T03:40:15;9.15;;;3.53;;
32032;SDS011;31720;52.638;9.216;2024-01-10T03:43:18;5.93;;;2.97;;
32032;SDS011;31720;52.638;9.216;2024-01-10T03:46:19;5.75;;;2.95;;
32032;SDS011;31720;52.638;9.216;2024-01-10T03:49:20;8.73;;;3.78;;
32032;SDS011;31720;52.638;9.216;2024-01-10T03:52:22;14.02;;;4.22;;
32032;SDS011;31720;52.638;9.216;2024-01-10T03:55:23;5.72;;;2.75;;
32032;SDS011;31720;52.638;9.216;2024-01-10T03:58:26;10.20;;;3.55;;
32032;SDS011;31720;52.638;9.216;2024-01-10T04:01:27;6.35;;;3.88;;
32032;SDS011;31720;52.638;9.216;2024-01-10T04:04:28;7.10;;;2.83;;
32032;SDS011;31720;52.638;9.216;2024-01-10T04:07:30;7.82;;;3.60;;
32032;SDS011;31720;52.638;9.216;2024-01-10T04:10:31;7.30;;;3.47;;
32032;SDS011;31720;52.638;9.216;2024-01-10T04:13:34;10.98;;;3.13;;
32032;SDS011;31720;52.638;9.216;2024-01-10T04:16:36;7.43;;;2.50;;
32032;SDS011;31720;52.638;9.216;2024-01-10T04:19:37;4.82;;;2.67;;
32032;SDS011;31720;52.638;9.216;2024-01-10T04:22:39;9.20;;;4.35;;
32032;SDS011;31720;52.638;9.216;2024-01-10T04:25:40;8.18;;;3.13;;
32032;SDS011;31720;52.638;9.216;2024-01-10T04:28:43;7.05;;;2.85;;
32032;SDS011;31720;52.638;9.216;2024-01-10T04:31:44;4.95;;;3.03;;
32032;SDS011;31720;52.638;9.216;2024-01-10T04:34:45;5.78;;;3.08;;
32032;SDS011;31720;52.638;9.216;2024-01-10T04:37:47;8.70;;;3.60;;
32032;SDS011;31720;52.638;9.216;2024-01-10T04:40:48;4.10;;;2.17;;
32032;SDS011;31720;52.638;9.216;2024-01-10T04:43:51;6.25;;;3.08;;
32032;SDS011;31720;52.638;9.216;2024-01-10T04:46:52;8.43;;;3.05;;
32032;SDS011;31720;52.638;9.216;2024-01-10T04:49:54;6.75;;;2.55;;
32032;SDS011;31720;52.638;9.216;2024-01-10T04:52:55;5.32;;;2.92;;
32032;SDS011;31720;52.638;9.216;2024-01-10T04:55:56;9.98;;;3.05;;
32032;SDS011;31720;52.638;9.216;2024-01-10T04:58:59;6.95;;;3.33;;
32032;SDS011;31720;52.638;9.216;2024-01-10T05:02:00;6.82;;;2.88;;
32032;SDS011;31720;52.638;9.216;2024-01-10T05:05:02;6.78;;;2.97;;
32032;SDS011;31720;52.638;9.216;2024-01-10T05:08:05;3.20;;;1.92;;
32032;SDS011;31720;52.638;9.216;2024-01-10T05:11:07;9.15;;;3.42;;
32032;SDS011;31720;52.638;9.216;2024-01-10T05:14:10;8.27;;;3.45;;
32032;SDS011;31720;52.638;9.216;2024-01-10T05:17:11;7.93;;;3.13;;
32032;SDS011;31720;52.638;9.216;2024-01-10T05:20:12;9.90;;;2.83;;
32032;SDS011;31720;52.638;9.216;2024-01-10T05:23:14;7.90;;;2.65;;
32032;SDS011;31720;52.638;9.216;2024-01-10T05:26:15;11.65;;;3.15;;
32032;SDS011;31720;52.638;9.216;2024-01-10T05:29:18;3.55;;;2.15;;
32032;SDS011;31720;52.638;9.216;2024-01-10T05:32:22;10.40;;;3.97;;
32032;SDS011;31720;52.638;9.216;2024-01-10T05:35:23;7.70;;;3.42;;
32032;SDS011;31720;52.638;9.216;2024-01-10T05:38:25;6.35;;;2.80;;
32032;SDS011;31720;52.638;9.216;2024-01-10T05:41:27;11.27;;;2.25;;
32032;SDS011;31720;52.638;9.216;2024-01-10T05:44:31;6.07;;;3.03;;
32032;SDS011;31720;52.638;9.216;2024-01-10T05:47:32;12.30;;;3.13;;
32032;SDS011;31720;52.638;9.216;2024-01-10T05:50:33;5.47;;;2.95;;
32032;SDS011;31720;52.638;9.216;2024-01-10T05:53:35;8.77;;;4.53;;
32032;SDS011;31720;52.638;9.216;2024-01-10T05:56:36;7.18;;;3.47;;
32032;SDS011;31720;52.638;9.216;2024-01-10T05:59:39;19.98;;;6.22;;
32032;SDS011;31720;52.638;9.216;2024-01-10T06:02:41;9.90;;;4.40;;
32032;SDS011;31720;52.638;9.216;2024-01-10T06:05:43;6.10;;;3.30;;
32032;SDS011;31720;52.638;9.216;2024-01-10T06:08:44;12.55;;;4.70;;
32032;SDS011;31720;52.638;9.216;2024-01-10T06:11:46;8.57;;;3.88;;
32032;SDS011;31720;52.638;9.216;2024-01-10T06:14:48;7.00;;;2.85;;
32032;SDS011;31720;52.638;9.216;2024-01-10T06:17:50;5.60;;;3.15;;
32032;SDS011;31720;52.638;9.216;2024-01-10T06:20:51;9.05;;;4.07;;
32032;SDS011;31720;52.638;9.216;2024-01-10T06:23:53;11.85;;;3.15;;
32032;SDS011;31720;52.638;9.216;2024-01-10T06:26:54;7.35;;;3.05;;
32032;SDS011;31720;52.638;9.216;2024-01-10T06:29:56;8.30;;;3.90;;
32032;SDS011;31720;52.638;9.216;2024-01-10T06:32:58;5.15;;;3.28;;
32032;SDS011;31720;52.638;9.216;2024-01-10T06:35:59;10.18;;;4.03;;
32032;SDS011;31720;52.638;9.216;2024-01-10T06:39:01;9.50;;;3.75;;
32032;SDS011;31720;52.638;9.216;2024-01-10T06:42:03;7.72;;;2.75;;
32032;SDS011;31720;52.638;9.216;2024-01-10T06:45:08;11.75;;;3.00;;
32032;SDS011;31720;52.638;9.216;2024-01-10T06:48:11;10.90;;;3.35;;
32032;SDS011;31720;52.638;9.216;2024-01-10T06:51:13;9.32;;;3.10;;
32032;SDS011;31720;52.638;9.216;2024-01-10T06:54:15;8.80;;;3.00;;
32032;SDS011;31720;52.638;9.216;2024-01-10T06:57:18;8.05;;;3.38;;
32032;SDS011;31720;52.638;9.216;2024-01-10T07:00:21;8.05;;;4.13;;
32032;SDS011;31720;52.638;9.216;2024-01-10T07:03:23;6.53;;;3.28;;
32032;SDS011;31720;52.638;9.216;2024-01-10T07:06:24;9.88;;;3.92;;
32032;SDS011;31720;52.638;9.216;2024-01-10T07:09:26;10.88;;;4.50;;
32032;SDS011;31720;52.638;9.216;2024-01-10T07:12:27;5.57;;;3.00;;
32032;SDS011;31720;52.638;9.216;2024-01-10T07:15:30;12.57;;;3.75;;
32032;SDS011;31720;52.638;9.216;2024-01-10T07:18:31;7.65;;;3.45;;
32032;SDS011;31720;52.638;9.216;2024-01-10T07:21:32;8.55;;;3.58;;
32032;SDS011;31720;52.638;9.216;2024-01-10T07:24:34;11.82;;;4.20;;
32032;SDS011;31720;52.638;9.216;2024-01-10T07:27:35;7.43;;;3.03;;
32032;SDS011;31720;52.638;9.216;2024-01-10T07:30:39;9.35;;;3.55;;
32032;SDS011;31720;52.638;9.216;2024-01-10T07:33:40;7.75;;;3.22;;
32032;SDS011;31720;52.638;9.216;2024-01-10T07:36:42;7.57;;;3.47;;
32032;SDS011;31720;52.638;9.216;2024-01-10T07:39:43;15.15;;;3.30;;
32032;SDS011;31720;52.638;9.216;2024-01-10T07:42:45;5.15;;;2.55;;
32032;SDS011;31720;52.638;9.216;2024-01-10T07:45:47;9.60;;;3.67;;
32032;SDS011;31720;52.638;9.216;2024-01-10T07:48:49;10.70;;;2.70;;
32032;SDS011;31720;52.638;9.216;2024-01-10T07:51:50;7.03;;;3.53;;
32032;SDS011;31720;52.638;9.216;2024-01-10T07:54:52;7.90;;;4.65;;
32032;SDS011;31720;52.638;9.216;2024-01-10T07:57:53;7.45;;;3.60;;
32032;SDS011;31720;52.638;9.216;2024-01-10T08:00:56;13.20;;;5.65;;
32032;SDS011;31720;52.638;9.216;2024-01-10T08:03:57;12.23;;;3.60;;
32032;SDS011;31720;52.638;9.216;2024-01-10T08:06:58;6.88;;;3.95;;
32032;SDS011;31720;52.638;9.216;2024-01-10T08:10:00;10.23;;;4.45;;
32032;SDS011;31720;52.638;9.216;2024-01-10T08:13:02;8.23;;;4.28;;
32032;SDS011;31720;52.638;9.216;2024-01-10T08:16:06;13.93;;;4.78;;
32032;SDS011;31720;52.638;9.216;2024-01-10T08:19:08;21.08;;;5.75;;
32032;SDS011;31720;52.638;9.216;2024-01-10T08:22:11;15.13;;;4.32;;
32032;SDS011;31720;52.638;9.216;2024-01-10T08:25:13;9.15;;;4.03;;
32032;SDS011;31720;52.638;9.216;2024-01-10T08:28:15;7.80;;;3.83;;
32032;SDS011;31720;52.638;9.216;2024-01-10T08:31:18;12.55;;;5.28;;
32032;SDS011;31720;52.638;9.216;2024-01-10T08:34:20;11.38;;;5.05;;
32032;SDS011;31720;52.638;9.216;2024-01-10T08:37:21;8.93;;;3.78;;
32032;SDS011;31720;52.638;9.216;2024-01-10T08:40:22;21.85;;;6.93;;
32032;SDS011;31720;52.638;9.216;2024-01-10T08:43:25;20.92;;;6.35;;
32032;SDS011;31720;52.638;9.216;2024-01-10T08:46:28;11.65;;;5.68;;
32032;SDS011;31720;52.638;9.216;2024-01-10T08:49:29;13.10;;;5.30;;
32032;SDS011;31720;52.638;9.216;2024-01-10T08:52:31;11.77;;;4.43;;
32032;SDS011;31720;52.638;9.216;2024-01-10T08:55:32;15.55;;;5.82;;
32032;SDS011;31720;52.638;9.216;2024-01-10T08:58:34;9.13;;;4.10;;
32032;SDS011;31720;52.638;9.216;2024-01-10T09:01:36;12.15;;;4.53;;
32032;SDS011;31720;52.638;9.216;2024-01-10T09:04:38;11.63;;;5.70;;
32032;SDS011;31720;52.638;9.216;2024-01-10T09:07:40;10.35;;;4.38;;
32032;SDS011;31720;52.638;9.216;2024-01-10T09:10:42;10.43;;;4.63;;
32032;SDS011;31720;52.638;9.216;2024-01-10T09:13:43;16.23;;;5.28;;
32032;SDS011;31720;52.638;9.216;2024-01-10T09:16:46;14.30;;;5.72;;
32032;SDS011;31720;52.638;9.216;2024-01-10T09:19:47;12.77;;;4.60;;
32032;SDS011;31720;52.638;9.216;2024-01-10T09:22:49;14.07;;;5.20;;
32032;SDS011;31720;52.638;9.216;2024-01-10T09:25:50;12.18;;;5.28;;
32032;SDS011;31720;52.638;9.216;2024-01-10T09:28:52;19.60;;;6.07;;
32032;SDS011;31720;52.638;9.216;2024-01-10T09:31:55;16.05;;;6.63;;
32032;SDS011;31720;52.638;9.216;2024-01-10T09:34:57;21.15;;;7.78;;
32032;SDS011;31720;52.638;9.216;2024-01-10T09:37:58;16.45;;;6.05;;
32032;SDS011;31720;52.638;9.216;2024-01-10T09:41:00;12.45;;;5.15;;
32032;SDS011;31720;52.638;9.216;2024-01-10T09:44:04;19.55;;;4.88;;
32032;SDS011;31720;52.638;9.216;2024-01-10T09:47:07;21.80;;;6.00;;
32032;SDS011;31720;52.638;9.216;2024-01-10T09:50:10;26.10;;;7.65;;
32032;SDS011;31720;52.638;9.216;2024-01-10T09:53:12;16.50;;;5.88;;
32032;SDS011;31720;52.638;9.216;2024-01-10T09:56:21;15.73;;;6.32;;
32032;SDS011;31720;52.638;9.216;2024-01-10T09:59:23;14.02;;;6.03;;
32032;SDS011;31720;52.638;9.216;2024-01-10T10:02:26;15.63;;;6.97;;
32032;SDS011;31720;52.638;9.216;2024-01-10T10:05:28;17.17;;;5.38;;
32032;SDS011;31720;52.638;9.216;2024-01-10T10:08:30;15.05;;;5.43;;
32032;SDS011;31720;52.638;9.216;2024-01-10T10:11:31;17.02;;;6.22;;
32032;SDS011;31720;52.638;9.216;2024-01-10T10:14:33;17.05;;;6.20;;
32032;SDS011;31720;52.638;9.216;2024-01-10T10:17:35;18.23;;;5.80;;
32032;SDS011;31720;52.638;9.216;2024-01-10T10:20:37;19.35;;;6.38;;
32032;SDS011;31720;52.638;9.216;2024-01-10T10:23:39;28.65;;;6.10;;
32032;SDS011;31720;52.638;9.216;2024-01-10T10:26:41;16.73;;;6.30;;
32032;SDS011;31720;52.638;9.216;2024-01-10T10:29:42;16.35;;;5.53;;
32032;SDS011;31720;52.638;9.216;2024-01-10T10:32:45;21.58;;;6.47;;
32032;SDS011;31720;52.638;9.216;2024-01-10T10:35:47;21.95;;;6.28;;
32032;SDS011;31720;52.638;9.216;2024-01-10T10:38:50;13.98;;;4.90;;
32032;SDS011;31720;52.638;9.216;2024-01-10T10:41:52;15.02;;;5.57;;
32032;SDS011;31720;52.638;9.216;2024-01-10T10:44:54;15.45;;;6.68;;
32032;SDS011;31720;52.638;9.216;2024-01-10T10:48:05;18.98;;;7.40;;
32032;SDS011;31720;52.638;9.216;2024-01-10T10:51:11;19.30;;;6.30;;
32032;SDS011;31720;52.638;9.216;2024-01-10T10:54:16;15.60;;;7.32;;
32032;SDS011;31720;52.638;9.216;2024-01-10T10:57:19;15.55;;;6.50;;
32032;SDS011;31720;52.638;9.216;2024-01-10T11:00:22;18.20;;;6.35;;
32032;SDS011;31720;52.638;9.216;2024-01-10T11:03:28;15.05;;;6.60;;
32032;SDS011;31720;52.638;9.216;2024-01-10T11:06:32;14.85;;;5.75;;
32032;SDS011;31720;52.638;9.216;2024-01-10T11:09:34;16.52;;;7.25;;
32032;SDS011;31720;52.638;9.216;2024-01-10T11:12:58;12.38;;;5.35;;
32032;SDS011;31720;52.638;9.216;2024-01-10T11:16:23;13.20;;;5.18;;
32032;SDS011;31720;52.638;9.216;2024-01-10T11:20:07;13.10;;;5.13;;
32032;SDS011;31720;52.638;9.216;2024-01-10T11:23:33;19.98;;;6.35;;
32032;SDS011;31720;52.638;9.216;2024-01-10T11:26:39;17.63;;;5.93;;
32032;SDS011;31720;52.638;9.216;2024-01-10T11:29:41;19.60;;;5.55;;
32032;SDS011;31720;52.638;9.216;2024-01-10T11:32:47;15.02;;;6.18;;
32032;SDS011;31720;52.638;9.216;2024-01-10T11:39:25;12.55;;;5.50;;
32032;SDS011;31720;52.638;9.216;2024-01-10T11:42:40;16.55;;;4.72;;
32032;SDS011;31720;52.638;9.216;2024-01-10T11:45:51;16.38;;;5.53;;
32032;SDS011;31720;52.638;9.216;2024-01-10T11:48:53;14.88;;;4.75;;
32032;SDS011;31720;52.638;9.216;2024-01-10T11:51:56;12.18;;;5.05;;
32032;SDS011;31720;52.638;9.216;2024-01-10T11:55:00;28.88;;;7.82;;
32032;SDS011;31720;52.638;9.216;2024-01-10T11:58:08;22.92;;;8.40;;
32032;SDS011;31720;52.638;9.216;2024-01-10T12:01:10;12.43;;;4.60;;
32032;SDS011;31720;52.638;9.216;2024-01-10T12:04:11;14.68;;;4.82;;
32032;SDS011;31720;52.638;9.216;2024-01-10T12:07:15;16.23;;;4.85;;
32032;SDS011;31720;52.638;9.216;2024-01-10T12:10:18;14.63;;;5.55;;
32032;SDS011;31720;52.638;9.216;2024-01-10T12:13:19;11.00;;;4.85;;
32032;SDS011;31720;52.638;9.216;2024-01-10T12:16:21;11.82;;;4.95;;
32032;SDS011;31720;52.638;9.216;2024-01-10T12:19:24;12.38;;;4.68;;
32032;SDS011;31720;52.638;9.216;2024-01-10T12:22:26;17.45;;;5.35;;
32032;SDS011;31720;52.638;9.216;2024-01-10T12:25:28;14.13;;;4.78;;
32032;SDS011;31720;52.638;9.216;2024-01-10T12:28:29;16.52;;;5.15;;
32032;SDS011;31720;52.638;9.216;2024-01-10T12:31:30;12.20;;;4.93;;
32032;SDS011;31720;52.638;9.216;2024-01-10T12:34:32;22.15;;;5.43;;
32032;SDS011;31720;52.638;9.216;2024-01-10T12:37:35;9.23;;;4.13;;
32032;SDS011;31720;52.638;9.216;2024-01-10T12:40:37;15.13;;;5.07;;
32032;SDS011;31720;52.638;9.216;2024-01-10T12:43:38;11.52;;;4.72;;
32032;SDS011;31720;52.638;9.216;2024-01-10T12:46:49;11.60;;;4.97;;
32032;SDS011;31720;52.638;9.216;2024-01-10T12:49:52;16.67;;;4.80;;
32032;SDS011;31720;52.638;9.216;2024-01-10T12:52:55;18.10;;;5.38;;
32032;SDS011;31720;52.638;9.216;2024-01-10T12:55:58;16.27;;;6.13;;
32032;SDS011;31720;52.638;9.216;2024-01-10T12:58:59;18.90;;;6.93;;
32032;SDS011;31720;52.638;9.216;2024-01-10T13:02:00;17.35;;;4.75;;
32032;SDS011;31720;52.638;9.216;2024-01-10T13:05:02;11.13;;;5.45;;
32032;SDS011;31720;52.638;9.216;2024-01-10T13:08:05;14.20;;;6.35;;
32032;SDS011;31720;52.638;9.216;2024-01-10T13:11:07;16.33;;;6.60;;
32032;SDS011;31720;52.638;9.216;2024-01-10T13:14:09;14.40;;;4.85;;
32032;SDS011;31720;52.638;9.216;2024-01-10T13:17:10;16.95;;;5.47;;
32032;SDS011;31720;52.638;9.216;2024-01-10T13:20:12;15.85;;;5.65;;
32032;SDS011;31720;52.638;9.216;2024-01-10T13:23:15;13.23;;;5.70;;
32032;SDS011;31720;52.638;9.216;2024-01-10T13:26:16;14.32;;;5.38;;
32032;SDS011;31720;52.638;9.216;2024-01-10T13:29:18;15.13;;;4.30;;
32032;SDS011;31720;52.638;9.216;2024-01-10T13:32:19;12.18;;;5.05;;
32032;SDS011;31720;52.638;9.216;2024-01-10T13:35:21;12.60;;;4.30;;
32032;SDS011;31720;52.638;9.216;2024-01-10T13:38:24;12.82;;;4.85;;
32032;SDS011;31720;52.638;9.216;2024-01-10T13:41:26;8.68;;;4.65;;
32032;SDS011;31720;52.638;9.216;2024-01-10T13:44:27;15.90;;;4.28;;
32032;SDS011;31720;52.638;9.216;2024-01-10T13:47:28;14.75;;;4.93;;
32032;SDS011;31720;52.638;9.216;2024-01-10T13:50:30;11.10;;;4.00;;
32032;SDS011;31720;52.638;9.216;2024-01-10T13:53:32;16.45;;;5.40;;
32032;SDS011;31720;52.638;9.216;2024-01-10T13:56:34;14.93;;;4.82;;
32032;SDS011;31720;52.638;9.216;2024-01-10T13:59:35;20.65;;;4.93;;
32032;SDS011;31720;52.638;9.216;2024-01-10T14:02:36;17.42;;;5.05;;
32032;SDS011;31720;52.638;9.216;2024-01-10T14:05:38;17.52;;;5.57;;
32032;SDS011;31720;52.638;9.216;2024-01-10T14:08:41;10.60;;;4.28;;
32032;SDS011;31720;52.638;9.216;2024-01-10T14:11:43;13.88;;;4.78;;
32032;SDS011;31720;52.638;9.216;2024-01-10T14:14:45;17.20;;;4.75;;
32032;SDS011;31720;52.638;9.216;2024-01-10T14:17:46;13.55;;;5.28;;
32032;SDS011;31720;52.638;9.216;2024-01-10T14:20:49;16.23;;;5.07;;
32032;SDS011;31720;52.638;9.216;2024-01-10T14:23:51;12.18;;;4.75;;
32032;SDS011;31720;52.638;9.216;2024-01-10T14:26:53;15.05;;;5.53;;
32032;SDS011;31720;52.638;9.216;2024-01-10T14:29:54;14.02;;;6.05;;
32032;SDS011;31720;52.638;9.216;2024-01-10T14:32:56;11.45;;;3.90;;
32032;SDS011;31720;52.638;9.216;2024-01-10T14:35:59;17.45;;;4.78;;
32032;SDS011;31720;52.638;9.216;2024-01-10T14:39:04;12.50;;;3.92;;
32032;SDS011;31720;52.638;9.216;2024-01-10T14:42:07;11.30;;;4.30;;
32032;SDS011;31720;52.638;9.216;2024-01-10T14:45:09;10.00;;;3.50;;
32032;SDS011;31720;52.638;9.216;2024-01-10T14:48:10;17.35;;;4.38;;
32032;SDS011;31720;52.638;9.216;2024-01-10T14:51:12;17.90;;;4.80;;
32032;SDS011;31720;52.638;9.216;2024-01-10T14:54:14;16.63;;;4.28;;
32032;SDS011;31720;52.638;9.216;2024-01-10T14:57:16;13.63;;;4.45;;
32032;SDS011;31720;52.638;9.216;2024-01-10T15:00:17;8.63;;;4.30;;
32032;SDS011;31720;52.638;9.216;2024-01-10T15:03:19;8.73;;;3.72;;
32032;SDS011;31720;52.638;9.216;2024-01-10T15:06:21;10.85;;;4.55;;
32032;SDS011;31720;52.638;9.216;2024-01-10T15:09:24;12.15;;;4.32;;
32032;SDS011;31720;52.638;9.216;2024-01-10T15:12:25;15.73;;;3.97;;
32032;SDS011;31720;52.638;9.216;2024-01-10T15:15:27;11.50;;;4.63;;
32032;SDS011;31720;52.638;9.216;2024-01-10T15:18:28;8.52;;;4.07;;
32032;SDS011;31720;52.638;9.216;2024-01-10T15:21:30;15.90;;;5.05;;
32032;SDS011;31720;52.638;9.216;2024-01-10T15:24:32;11.30;;;4.63;;
32032;SDS011;31720;52.638;9.216;2024-01-10T15:27:34;12.98;;;4.72;;
32032;SDS011;31720;52.638;9.216;2024-01-10T15:30:36;16.08;;;5.05;;
32032;SDS011;31720;52.638;9.216;2024-01-10T15:33:37;12.23;;;4.30;;
32032;SDS011;31720;52.638;9.216;2024-01-10T15:36:39;11.65;;;4.47;;
32032;SDS011;31720;52.638;9.216;2024-01-10T15:39:43;10.55;;;4.20;;
32032;SDS011;31720;52.638;9.216;2024-01-10T15:42:44;11.98;;;3.90;;
32032;SDS011;31720;52.638;9.216;2024-01-10T15:45:45;9.65;;;4.53;;
32032;SDS011;31720;52.638;9.216;2024-01-10T15:48:47;14.82;;;4.88;;
32032;SDS011;31720;52.638;9.216;2024-01-10T15:51:48;16.77;;;4.25;;
32032;SDS011;31720;52.638;9.216;2024-01-10T15:54:51;13.60;;;4.75;;
32032;SDS011;31720;52.638;9.216;2024-01-10T15:57:53;13.38;;;5.53;;
32032;SDS011;31720;52.638;9.216;2024-01-10T16:00:55;11.43;;;4.22;;
32032;SDS011;31720;52.638;9.216;2024-01-10T16:03:56;10.40;;;4.45;;
32032;SDS011;31720;52.638;9.216;2024-01-10T16:06:58;5.85;;;2.92;;
32032;SDS011;31720;52.638;9.216;2024-01-10T16:10:00;12.10;;;4.10;;
32032;SDS011;31720;52.638;9.216;2024-01-10T16:13:03;14.48;;;4.43;;
32032;SDS011;31720;52.638;9.216;2024-01-10T16:16:05;14.13;;;5.03;;
32032;SDS011;31720;52.638;9.216;2024-01-10T16:19:08;12.60;;;4.22;;
32032;SDS011;31720;52.638;9.216;2024-01-10T16:22:11;11.77;;;3.78;;
32032;SDS011;31720;52.638;9.216;2024-01-10T16:25:14;10.85;;;4.20;;
32032;SDS011;31720;52.638;9.216;2024-01-10T16:28:16;24.85;;;4.57;;
32032;SDS011;31720;52.638;9.216;2024-01-10T16:31:17;7.20;;;3.80;;
32032;SDS011;31720;52.638;9.216;2024-01-10T16:34:18;11.52;;;5.43;;
32032;SDS011;31720;52.638;9.216;2024-01-10T16:37:20;13.48;;;5.18;;
32032;SDS011;31720;52.638;9.216;2024-01-10T16:40:24;7.85;;;4.15;;
32032;SDS011;31720;52.638;9.216;2024-01-10T16:43:26;9.90;;;4.22;;
32032;SDS011;31720;52.638;9.216;2024-01-10T16:46:27;7.75;;;3.80;;
32032;SDS011;31720;52.638;9.216;2024-01-10T16:49:29;14.07;;;5.03;;
32032;SDS011;31720;52.638;9.216;2024-01-10T16:52:30;11.35;;;4.07;;
32032;SDS011;31720;52.638;9.216;2024-01-10T16:55:33;16.20;;;4.47;;
32032;SDS011;31720;52.638;9.216;2024-01-10T16:58:34;12.07;;;4.40;;
32032;SDS011;31720;52.638;9.216;2024-01-10T17:01:35;10.45;;;4.25;;
32032;SDS011;31720;52.638;9.216;2024-01-10T17:04:37;7.07;;;2.80;;
32032;SDS011;31720;52.638;9.216;2024-01-10T17:07:38;8.25;;;3.88;;
32032;SDS011;31720;52.638;9.216;2024-01-10T17:10:41;10.50;;;3.55;;
32032;SDS011;31720;52.638;9.216;2024-01-10T17:13:42;8.90;;;3.80;;
32032;SDS011;31720;52.638;9.216;2024-01-10T17:16:44;11.10;;;3.38;;
32032;SDS011;31720;52.638;9.216;2024-01-10T17:19:46;8.70;;;4.32;;
32032;SDS011;31720;52.638;9.216;2024-01-10T17:22:47;7.88;;;3.78;;
32032;SDS011;31720;52.638;9.216;2024-01-10T17:25:50;38.17;;;11.85;;
32032;SDS011;31720;52.638;9.216;2024-01-10T17:28:51;34.03;;;11.10;;
32032;SDS011;31720;52.638;9.216;2024-01-10T17:31:52;17.27;;;7.13;;
32032;SDS011;31720;52.638;9.216;2024-01-10T17:34:54;13.75;;;4.28;;
32032;SDS011;31720;52.638;9.216;2024-01-10T17:37:55;15.57;;;5.25;;
32032;SDS011;31720;52.638;9.216;2024-01-10T17:40:58;11.75;;;4.90;;
32032;SDS011;31720;52.638;9.216;2024-01-10T17:43:59;11.70;;;3.97;;
32032;SDS011;31720;52.638;9.216;2024-01-10T17:47:01;8.30;;;3.72;;
32032;SDS011;31720;52.638;9.216;2024-01-10T17:50:02;9.88;;;4.38;;
32032;SDS011;31720;52.638;9.216;2024-01-10T17:53:04;12.13;;;4.13;;
32032;SDS011;31720;52.638;9.216;2024-01-10T17:56:07;8.45;;;3.97;;
32032;SDS011;31720;52.638;9.216;2024-01-10T17:59:08;10.68;;;4.13;;
32032;SDS011;31720;52.638;9.216;2024-01-10T18:02:09;12.15;;;4.00;;
32032;SDS011;31720;52.638;9.216;2024-01-10T18:05:11;12.32;;;4.03;;
32032;SDS011;31720;52.638;9.216;2024-01-10T18:08:12;13.88;;;4.88;;
32032;SDS011;31720;52.638;9.216;2024-01-10T18:11:15;9.77;;;3.38;;
32032;SDS011;31720;52.638;9.216;2024-01-10T18:14:17;14.15;;;4.97;;